Terminal Aerodrome Forecast
Issued by NWS

Current Version | Previous Version | Text Only | Print | Product List | Glossary On
Versions: 1 2 3 4 5 6 7 8 9 10 11 12
000
FTUS45 KRIW 282300
TAFCOD
TAF
KCOD 282325Z 2900/2924 36011KT P6SM VCTS SCT035 BKN060CB
     FM290200 35008KT P6SM VCSH BKN060
     FM290600 34007KT P6SM VCSH OVC035
     FM291900 04007KT P6SM VCSH BKN050
      AMD LTD TO CLD VIS AND WIND=

USA.gov is the U.S. government's official web portal to all federal, state and local government web resources and services.